Main page
METAR-TAF:

METAR-TAF

Airports :

Federico García Lorca Airport

Granada, Spain

latitude: 37-11N, longitude: 003-47W, elevation: 567 m

Current weather observation

The report was made 39 minutes ago, at 20:30 UTC
Wind 3 kt from the Southeast
Temperature 10°C
Humidity 93%
Pressure 1017 hPa
Visibility 10 km or more
Scattered clouds at a height of 3300 ft
Broken clouds at a height of 5500 ft

METAR: LEGR 212030Z 13003KT 9999 SCT033 BKN055 10/09 Q1017

Time: 22:09 (21:09 UTC)

Forecast

The report was made 1 hour and 9 minutes ago, at 20:00 UTC
Forecast valid from 21 at 21 UTC to 22 at 21 UTC
Wind 2 kt from variable directions
Visibility 10 km or more
Scattered clouds at a height of 3500 ft
Probability 30% :
Temporary
from 22 at 09 UTC to 22 at 20 UTC
Visibility: 4000 m
Broken clouds at a height of 1200 ft
rain

TAF: LEGR 212000Z 2121/2221 VRB02KT 9999 SCT035 TX12/2215Z TN06/2207Z PROB30 TEMPO 2209/2220 4000 RA BKN012

Weather observations and forecasts of more than 4000 airports (METAR and TAF reports).

The available stations are represented by yellow and red dots on the map.

Hover mouse over dot to see the name of the station.

Then click to see weather observations and forecasts.

To change the map : click on the green buttons with a black cross to zoom in, on the green button with a dash to zoom out, or on the green arrows for adjacent maps.


METAR-TAF: